Emerald Leader — C6WP4 — position and weather

sailwx.info

Track history (hours):
 
Tides and Currents Weather Stations Pressure Air Temp Water Temp Dewpoint Dewpoint Depression Visibility Wind Speed Wind Dir Waves Ship Positions

Emerald Leader

Last reported at 2016-Dec-03 13:32 UTC. Time now 2016-Dec-03 13:44 UTC.
Position N 51°19' E 003°13'.

Length 176 m; draft 8.4 m.

Type: Cargo ship. MMSI: 308688000.

Date/timePositionNaut miles runAvg speedWind from/ knotsBaromVisibWave heightAir tempDewpointWater temp
2016-Dec-03 13:32N 51°19' E 003°13'0 0.0
2016-Dec-03 12:32N 51°19' E 003°13'0 0.0
2016-Dec-03 11:32N 51°19' E 003°13'0 0.0
2016-Dec-03 10:32N 51°19' E 003°13'0 0.0
2016-Dec-03 09:32N 51°19' E 003°13'0 0.0
2016-Dec-03 08:32N 51°19' E 003°13'0 0.0
2016-Dec-03 07:32N 51°19' E 003°13'0 0.0
2016-Dec-03 06:32N 51°19' E 003°13'0 0.0
2016-Dec-03 05:32N 51°19' E 003°13'0 0.0
2016-Dec-03 04:32N 51°19' E 003°13'0 0.0
2016-Dec-03 03:32N 51°19' E 003°13'0 0.0
2016-Dec-03 02:32N 51°19' E 003°13'0 0.0
2016-Dec-03 01:32N 51°19' E 003°13'0 0.0
2016-Dec-03 00:32N 51°19' E 003°13'0 0.0
2016-Dec-02 23:32N 51°19' E 003°13'0 0.0
2016-Dec-02 22:32N 51°19' E 003°13'0 0.0
2016-Dec-02 21:32N 51°19' E 003°13'0 0.0
2016-Dec-02 20:32N 51°19' E 003°13'0 0.0
2016-Dec-02 19:32N 51°19' E 003°13'0 0.0
2016-Dec-02 18:32N 51°19' E 003°13'0 0.0
2016-Dec-02 17:32N 51°19' E 003°13'0 0.0
2016-Dec-02 16:32N 51°19' E 003°13'0 0.0
2016-Dec-02 15:32N 51°19' E 003°13'0 0.0
2016-Dec-02 14:32N 51°19' E 003°13'0 0.1
2016-Dec-02 13:32N 51°19' E 003°13'1 0.7
2016-Dec-02 12:31N 51°18' E 003°14'0 0.0
2016-Dec-02 11:31N 51°18' E 003°14'0 0.0
2016-Dec-02 10:31N 51°18' E 003°14'0 0.0
2016-Dec-02 09:31N 51°18' E 003°14'0 0.0
2016-Dec-02 08:31N 51°18' E 003°14'0 0.0
2016-Dec-02 07:31N 51°18' E 003°14'0 0.0
2016-Dec-02 06:31N 51°18' E 003°14'0 0.0
2016-Dec-02 05:31N 51°18' E 003°14'0 0.0
2016-Dec-02 04:31N 51°18' E 003°14'0 0.0
2016-Dec-02 03:31N 51°18' E 003°14'0 0.0
2016-Dec-02 02:31N 51°18' E 003°14'0 0.0
2016-Dec-02 01:31N 51°18' E 003°14'0 0.0
2016-Dec-02 00:31N 51°18' E 003°14'0 0.0
2016-Dec-01 23:31N 51°18' E 003°14'0 0.0
2016-Dec-01 22:31N 51°18' E 003°14'0 0.0
2016-Dec-01 21:31N 51°18' E 003°14'0 0.0
2016-Dec-01 20:31N 51°18' E 003°14'0 0.0
2016-Dec-01 19:31N 51°18' E 003°14'0 0.0
2016-Dec-01 18:31N 51°18' E 003°14'0 0.0
2016-Dec-01 17:31N 51°18' E 003°14'0 0.0
2016-Dec-01 16:31N 51°18' E 003°14'1 1.3
2016-Dec-01 15:33N 51°20' E 003°13'1 0.5
2016-Dec-01 14:32N 51°20' E 003°13'5 5.6
2016-Dec-01 13:33N 51°24' E 003°07'1212.2
2016-Dec-01 12:33N 51°24' E 002°47'7 7.1
2016-Dec-01 11:34N 51°30' E 002°42'1110.7
2016-Dec-01 10:33N 51°41' E 002°44'4915.7
2016-Dec-01 07:26N 52°26' E 003°15'9516.2
2016-Dec-01 01:34N 53°34' E 005°06'1717.3
2016-Dec-01 00:33N 53°40' E 005°33'1716.7
2016-Nov-30 23:33N 53°46' E 005°60'6114.9
2016-Nov-30 19:29N 53°58' E 007°40'1212.8
2016-Nov-30 18:33N 53°52' E 007°57'1616.2
2016-Nov-30 17:33N 53°42' E 008°20'1212.0
2016-Nov-30 16:33N 53°33' E 008°34'0 0.4
2016-Nov-30 15:33N 53°34' E 008°34'0 0.3
2016-Nov-30 14:32N 53°34' E 008°34'0 0.0
2016-Nov-30 13:32N 53°34' E 008°34'0 0.0
2016-Nov-30 12:29N 53°34' E 008°34'0 0.0
2016-Nov-30 11:32N 53°34' E 008°34'0 0.0
2016-Nov-30 10:32N 53°34' E 008°34'0 0.0
2016-Nov-30 09:32N 53°34' E 008°34'0 0.0
2016-Nov-30 08:29N 53°34' E 008°34'0 0.0
2016-Nov-30 07:32N 53°34' E 008°34'0 0.0
2016-Nov-30 06:32N 53°34' E 008°34'0 0.0
2016-Nov-30 05:32N 53°34' E 008°34'0 0.0
2016-Nov-30 04:29N 53°34' E 008°34'0 0.0
2016-Nov-30 03:32N 53°34' E 008°34'1 0.5
2016-Nov-30 02:32N 53°35' E 008°34'0 0.0
2016-Nov-30 01:20N 53°35' E 008°34'0 0.0
2016-Nov-30 00:32N 53°35' E 008°34'0 0.0
2016-Nov-29 23:32N 53°35' E 008°34'0 0.0
2016-Nov-29 22:32N 53°35' E 008°34'0 0.0
2016-Nov-29 21:32N 53°35' E 008°34'0 0.0
2016-Nov-29 20:32N 53°35' E 008°34'0 0.0
2016-Nov-29 19:33N 53°35' E 008°34'0 0.0
2016-Nov-29 18:32N 53°35' E 008°34'0 0.0
2016-Nov-29 17:32N 53°35' E 008°34'0 0.0
2016-Nov-29 16:32N 53°35' E 008°34'0 0.0
2016-Nov-29 15:29N 53°35' E 008°34'0 0.0
2016-Nov-29 14:32N 53°35' E 008°34'0 0.0
2016-Nov-29 13:32N 53°35' E 008°34'0 0.0
2016-Nov-29 12:29N 53°35' E 008°34'0 0.0
2016-Nov-29 11:32N 53°35' E 008°34'0 0.0
2016-Nov-29 10:32N 53°35' E 008°34'0 0.0
2016-Nov-29 09:32N 53°35' E 008°34'0 0.0
2016-Nov-29 08:32N 53°35' E 008°34'0 0.0
2016-Nov-29 07:32N 53°35' E 008°34'0 0.0
2016-Nov-29 06:32N 53°35' E 008°34'0 0.0
2016-Nov-29 05:32N 53°35' E 008°34'0 0.0
2016-Nov-29 04:32N 53°35' E 008°34'0 0.0
2016-Nov-29 03:32N 53°35' E 008°34'0 0.0
2016-Nov-29 02:32N 53°35' E 008°34'0 0.0
2016-Nov-29 01:32N 53°35' E 008°34'0 0.4
2016-Nov-29 00:32N 53°34' E 008°33'4 4.2
2016-Nov-28 23:33N 53°37' E 008°28'1615.9
2016-Nov-28 22:33N 53°48' E 008°08'1312.6
2016-Nov-28 21:30N 53°53' E 007°47'54 8.8
2016-Nov-28 15:22N 53°44' E 006°17'8 9.8
2016-Nov-28 14:33N 53°42' E 006°04'1010.0
2016-Nov-28 13:33N 53°38' E 005°48'1211.8
2016-Nov-28 12:33N 53°35' E 005°30'1211.6
2016-Nov-28 11:33N 53°31' E 005°11'2912.7
2016-Nov-28 09:17N 53°13' E 004°33'1013.8
2016-Nov-28 08:34N 53°04' E 004°25'1413.8
2016-Nov-28 07:33N 52°52' E 004°16'1913.8
2016-Nov-28 06:12N 52°37' E 003°56'6015.0
2016-Nov-28 02:11N 51°54' E 002°47'1015.9
2016-Nov-28 01:33N 51°47' E 002°37'1616.0
2016-Nov-28 00:33N 51°35' E 002°20'1615.6
2016-Nov-27 23:33N 51°20' E 002°09'1514.7
2016-Nov-27 22:33N 51°10' E 001°53'1615.6
2016-Nov-27 21:33N 51°00' E 001°33'7213.8
2016-Nov-27 16:22N 50°17' E 000°03'3113.5
2016-Nov-27 14:06N 50°10' W 000°44'712.5
2016-Nov-27 13:32N 50°09' W 000°54'1212.0
2016-Nov-27 12:33N 50°06' W 001°12'1211.8
2016-Nov-27 11:34N 50°03' W 001°30'1212.5
2016-Nov-27 10:33N 49°60' W 001°48'3514.5
2016-Nov-27 08:11N 49°52' W 002°41'1115.5
2016-Nov-27 07:30N 49°49' W 002°56'1515.5
2016-Nov-27 06:32N 49°42' W 003°17'8616.1
2016-Nov-27 01:12N 48°57' W 005°09'1116.3
2016-Nov-27 00:33N 48°52' W 005°23'  
2016-Nov-24 16:33N 39°19' W 009°52'1616.0
2016-Nov-24 15:33N 39°03' W 009°52'1515.3
2016-Nov-24 14:33N 38°47' W 009°52'1515.2
2016-Nov-24 13:33N 38°32' W 009°49'1615.5
2016-Nov-24 12:33N 38°17' W 009°44'1515.3
2016-Nov-24 11:33N 38°02' W 009°40'  
Track history (hours):
 
Tides and Currents Weather Stations Pressure Air Temp Water Temp Dewpoint Dewpoint Depression Visibility Wind Speed Wind Dir Waves Ship Positions

Emerald Leader

Last reported at 2016-Dec-03 13:32 UTC. Time now 2016-Dec-03 13:44 UTC.
Position N 51°19' E 003°13'.

Length 176 m; draft 8.4 m.

Type: Cargo ship. MMSI: 308688000.

Date/timePositionNaut miles runAvg speedWind from/ knotsBaromVisibWave heightAir tempDewpointWater temp
2016-Dec-03 13:32N 51°19' E 003°13'0 0.0
2016-Dec-03 12:32N 51°19' E 003°13'0 0.0
2016-Dec-03 11:32N 51°19' E 003°13'0 0.0
2016-Dec-03 10:32N 51°19' E 003°13'0 0.0
2016-Dec-03 09:32N 51°19' E 003°13'0 0.0
2016-Dec-03 08:32N 51°19' E 003°13'0 0.0
2016-Dec-03 07:32N 51°19' E 003°13'0 0.0
2016-Dec-03 06:32N 51°19' E 003°13'0 0.0
2016-Dec-03 05:32N 51°19' E 003°13'0 0.0
2016-Dec-03 04:32N 51°19' E 003°13'0 0.0
2016-Dec-03 03:32N 51°19' E 003°13'0 0.0
2016-Dec-03 02:32N 51°19' E 003°13'0 0.0
2016-Dec-03 01:32N 51°19' E 003°13'0 0.0
2016-Dec-03 00:32N 51°19' E 003°13'0 0.0
2016-Dec-02 23:32N 51°19' E 003°13'0 0.0
2016-Dec-02 22:32N 51°19' E 003°13'0 0.0
2016-Dec-02 21:32N 51°19' E 003°13'0 0.0
2016-Dec-02 20:32N 51°19' E 003°13'0 0.0
2016-Dec-02 19:32N 51°19' E 003°13'0 0.0
2016-Dec-02 18:32N 51°19' E 003°13'0 0.0
2016-Dec-02 17:32N 51°19' E 003°13'0 0.0
2016-Dec-02 16:32N 51°19' E 003°13'0 0.0
2016-Dec-02 15:32N 51°19' E 003°13'0 0.0
2016-Dec-02 14:32N 51°19' E 003°13'0 0.1
2016-Dec-02 13:32N 51°19' E 003°13'1 0.7
2016-Dec-02 12:31N 51°18' E 003°14'0 0.0
2016-Dec-02 11:31N 51°18' E 003°14'0 0.0
2016-Dec-02 10:31N 51°18' E 003°14'0 0.0
2016-Dec-02 09:31N 51°18' E 003°14'0 0.0
2016-Dec-02 08:31N 51°18' E 003°14'0 0.0
2016-Dec-02 07:31N 51°18' E 003°14'0 0.0
2016-Dec-02 06:31N 51°18' E 003°14'0 0.0
2016-Dec-02 05:31N 51°18' E 003°14'0 0.0
2016-Dec-02 04:31N 51°18' E 003°14'0 0.0
2016-Dec-02 03:31N 51°18' E 003°14'0 0.0
2016-Dec-02 02:31N 51°18' E 003°14'0 0.0
2016-Dec-02 01:31N 51°18' E 003°14'0 0.0
2016-Dec-02 00:31N 51°18' E 003°14'0 0.0
2016-Dec-01 23:31N 51°18' E 003°14'0 0.0
2016-Dec-01 22:31N 51°18' E 003°14'0 0.0
2016-Dec-01 21:31N 51°18' E 003°14'0 0.0
2016-Dec-01 20:31N 51°18' E 003°14'0 0.0
2016-Dec-01 19:31N 51°18' E 003°14'0 0.0
2016-Dec-01 18:31N 51°18' E 003°14'0 0.0
2016-Dec-01 17:31N 51°18' E 003°14'0 0.0
2016-Dec-01 16:31N 51°18' E 003°14'1 1.3
2016-Dec-01 15:33N 51°20' E 003°13'1 0.5
2016-Dec-01 14:32N 51°20' E 003°13'5 5.6
2016-Dec-01 13:33N 51°24' E 003°07'1212.2
2016-Dec-01 12:33N 51°24' E 002°47'7 7.1
2016-Dec-01 11:34N 51°30' E 002°42'1110.7
2016-Dec-01 10:33N 51°41' E 002°44'4915.7
2016-Dec-01 07:26N 52°26' E 003°15'9516.2
2016-Dec-01 01:34N 53°34' E 005°06'1717.3
2016-Dec-01 00:33N 53°40' E 005°33'1716.7
2016-Nov-30 23:33N 53°46' E 005°60'6114.9
2016-Nov-30 19:29N 53°58' E 007°40'1212.8
2016-Nov-30 18:33N 53°52' E 007°57'1616.2
2016-Nov-30 17:33N 53°42' E 008°20'1212.0
2016-Nov-30 16:33N 53°33' E 008°34'0 0.4
2016-Nov-30 15:33N 53°34' E 008°34'0 0.3
2016-Nov-30 14:32N 53°34' E 008°34'0 0.0
2016-Nov-30 13:32N 53°34' E 008°34'0 0.0
2016-Nov-30 12:29N 53°34' E 008°34'0 0.0
2016-Nov-30 11:32N 53°34' E 008°34'0 0.0
2016-Nov-30 10:32N 53°34' E 008°34'0 0.0
2016-Nov-30 09:32N 53°34' E 008°34'0 0.0
2016-Nov-30 08:29N 53°34' E 008°34'0 0.0
2016-Nov-30 07:32N 53°34' E 008°34'0 0.0
2016-Nov-30 06:32N 53°34' E 008°34'0 0.0
2016-Nov-30 05:32N 53°34' E 008°34'0 0.0
2016-Nov-30 04:29N 53°34' E 008°34'0 0.0
2016-Nov-30 03:32N 53°34' E 008°34'1 0.5
2016-Nov-30 02:32N 53°35' E 008°34'0 0.0
2016-Nov-30 01:20N 53°35' E 008°34'0 0.0
2016-Nov-30 00:32N 53°35' E 008°34'0 0.0
2016-Nov-29 23:32N 53°35' E 008°34'0 0.0
2016-Nov-29 22:32N 53°35' E 008°34'0 0.0
2016-Nov-29 21:32N 53°35' E 008°34'0 0.0
2016-Nov-29 20:32N 53°35' E 008°34'0 0.0
2016-Nov-29 19:33N 53°35' E 008°34'0 0.0
2016-Nov-29 18:32N 53°35' E 008°34'0 0.0
2016-Nov-29 17:32N 53°35' E 008°34'0 0.0
2016-Nov-29 16:32N 53°35' E 008°34'0 0.0
2016-Nov-29 15:29N 53°35' E 008°34'0 0.0
2016-Nov-29 14:32N 53°35' E 008°34'0 0.0
2016-Nov-29 13:32N 53°35' E 008°34'0 0.0
2016-Nov-29 12:29N 53°35' E 008°34'0 0.0
2016-Nov-29 11:32N 53°35' E 008°34'0 0.0
2016-Nov-29 10:32N 53°35' E 008°34'0 0.0
2016-Nov-29 09:32N 53°35' E 008°34'0 0.0
2016-Nov-29 08:32N 53°35' E 008°34'0 0.0
2016-Nov-29 07:32N 53°35' E 008°34'0 0.0
2016-Nov-29 06:32N 53°35' E 008°34'0 0.0
2016-Nov-29 05:32N 53°35' E 008°34'0 0.0
2016-Nov-29 04:32N 53°35' E 008°34'0 0.0
2016-Nov-29 03:32N 53°35' E 008°34'0 0.0
2016-Nov-29 02:32N 53°35' E 008°34'0 0.0
2016-Nov-29 01:32N 53°35' E 008°34'0 0.4
2016-Nov-29 00:32N 53°34' E 008°33'4 4.2
2016-Nov-28 23:33N 53°37' E 008°28'1615.9
2016-Nov-28 22:33N 53°48' E 008°08'1312.6
2016-Nov-28 21:30N 53°53' E 007°47'54 8.8
2016-Nov-28 15:22N 53°44' E 006°17'8 9.8
2016-Nov-28 14:33N 53°42' E 006°04'1010.0
2016-Nov-28 13:33N 53°38' E 005°48'1211.8
2016-Nov-28 12:33N 53°35' E 005°30'1211.6
2016-Nov-28 11:33N 53°31' E 005°11'2912.7
2016-Nov-28 09:17N 53°13' E 004°33'1013.8
2016-Nov-28 08:34N 53°04' E 004°25'1413.8
2016-Nov-28 07:33N 52°52' E 004°16'1913.8
2016-Nov-28 06:12N 52°37' E 003°56'6015.0
2016-Nov-28 02:11N 51°54' E 002°47'1015.9
2016-Nov-28 01:33N 51°47' E 002°37'1616.0
2016-Nov-28 00:33N 51°35' E 002°20'1615.6
2016-Nov-27 23:33N 51°20' E 002°09'1514.7
2016-Nov-27 22:33N 51°10' E 001°53'1615.6
2016-Nov-27 21:33N 51°00' E 001°33'7213.8
2016-Nov-27 16:22N 50°17' E 000°03'3113.5
2016-Nov-27 14:06N 50°10' W 000°44'712.5
2016-Nov-27 13:32N 50°09' W 000°54'1212.0
2016-Nov-27 12:33N 50°06' W 001°12'1211.8
2016-Nov-27 11:34N 50°03' W 001°30'1212.5
2016-Nov-27 10:33N 49°60' W 001°48'3514.5
2016-Nov-27 08:11N 49°52' W 002°41'1115.5
2016-Nov-27 07:30N 49°49' W 002°56'1515.5
2016-Nov-27 06:32N 49°42' W 003°17'8616.1
2016-Nov-27 01:12N 48°57' W 005°09'1116.3
2016-Nov-27 00:33N 48°52' W 005°23'  
2016-Nov-24 16:33N 39°19' W 009°52'1616.0
2016-Nov-24 15:33N 39°03' W 009°52'1515.3
2016-Nov-24 14:33N 38°47' W 009°52'1515.2
2016-Nov-24 13:33N 38°32' W 009°49'1615.5
2016-Nov-24 12:33N 38°17' W 009°44'1515.3
2016-Nov-24 11:33N 38°02' W 009°40'  

Dump ship's entire track history